Faust — SLKQ — position and weather

sailwx.info

Track history (hours):
 
Tides and Currents Weather Stations Pressure Air Temp Water Temp Dewpoint Dewpoint Depression Visibility Wind Speed Wind Dir Waves Ship Positions

Faust

Last reported at 2015-Jul-01 09:33 UTC. Time now 2015-Jul-05 07:43 UTC.
Position S 26°25' E 153°19'.

Length 227.8 m; beam 32.3 m; draft 9.5 m.

Type: Cargo ship. MMSI: 266260000.

Date/timePositionNaut miles runAvg speedWind from/ knotsBaromVisibWave heightAir tempDewpointWater temp
2015-Jul-01 09:33S 26°25' E 153°19'1414.2
2015-Jul-01 08:33S 26°39' E 153°15'1413.7
2015-Jul-01 07:33S 26°51' E 153°09'1716.6
2015-Jul-01 06:33S 27°06' E 153°19'1313.2
2015-Jul-01 05:33S 27°18' E 153°13'6 5.7
2015-Jul-01 04:33S 27°23' E 153°10'0 0.1
2015-Jul-01 03:31S 27°23' E 153°10'0 0.0
2015-Jul-01 02:31S 27°23' E 153°10'0 0.0
2015-Jul-01 01:31S 27°23' E 153°10'0 0.0
2015-Jul-01 00:31S 27°23' E 153°10'0 0.0
2015-Jun-30 23:31S 27°23' E 153°10'0 0.0
2015-Jun-30 22:33S 27°23' E 153°10'0 0.0
2015-Jun-30 21:33S 27°23' E 153°10'0 0.0
2015-Jun-30 20:33S 27°23' E 153°10'0 0.1
2015-Jun-30 19:33S 27°23' E 153°10'9 9.5
2015-Jun-30 18:33S 27°16' E 153°17'1313.0
2015-Jun-30 17:33S 27°03' E 153°16'1514.7
2015-Jun-30 16:33S 26°49' E 153°10'8 8.1
2015-Jun-30 15:33S 26°44' E 153°16'1413.8
2015-Jun-30 14:31S 26°53' E 153°29'1414.2
2015-Jun-30 13:34S 27°04' E 153°38'1414.4
2015-Jun-30 12:34S 27°18' E 153°40'1515.1
2015-Jun-30 11:34S 27°33' E 153°43'1514.8
2015-Jun-30 10:33S 27°47' E 153°46'28415.5
2015-Jun-29 16:12S 32°28' E 152°56'1015.2
2015-Jun-29 15:33S 32°37' E 152°51'1916.3
2015-Jun-29 14:24S 32°52' E 152°38'1315.2
2015-Jun-29 13:33S 33°03' E 152°30'1815.1
2015-Jun-29 12:20S 33°18' E 152°17'  
Track history (hours):
 
Tides and Currents Weather Stations Pressure Air Temp Water Temp Dewpoint Dewpoint Depression Visibility Wind Speed Wind Dir Waves Ship Positions

Faust

Last reported at 2015-Jul-01 09:33 UTC. Time now 2015-Jul-05 07:43 UTC.
Position S 26°25' E 153°19'.

Length 227.8 m; beam 32.3 m; draft 9.5 m.

Type: Cargo ship. MMSI: 266260000.

Date/timePositionNaut miles runAvg speedWind from/ knotsBaromVisibWave heightAir tempDewpointWater temp
2015-Jul-01 09:33S 26°25' E 153°19'1414.2
2015-Jul-01 08:33S 26°39' E 153°15'1413.7
2015-Jul-01 07:33S 26°51' E 153°09'1716.6
2015-Jul-01 06:33S 27°06' E 153°19'1313.2
2015-Jul-01 05:33S 27°18' E 153°13'6 5.7
2015-Jul-01 04:33S 27°23' E 153°10'0 0.1
2015-Jul-01 03:31S 27°23' E 153°10'0 0.0
2015-Jul-01 02:31S 27°23' E 153°10'0 0.0
2015-Jul-01 01:31S 27°23' E 153°10'0 0.0
2015-Jul-01 00:31S 27°23' E 153°10'0 0.0
2015-Jun-30 23:31S 27°23' E 153°10'0 0.0
2015-Jun-30 22:33S 27°23' E 153°10'0 0.0
2015-Jun-30 21:33S 27°23' E 153°10'0 0.0
2015-Jun-30 20:33S 27°23' E 153°10'0 0.1
2015-Jun-30 19:33S 27°23' E 153°10'9 9.5
2015-Jun-30 18:33S 27°16' E 153°17'1313.0
2015-Jun-30 17:33S 27°03' E 153°16'1514.7
2015-Jun-30 16:33S 26°49' E 153°10'8 8.1
2015-Jun-30 15:33S 26°44' E 153°16'1413.8
2015-Jun-30 14:31S 26°53' E 153°29'1414.2
2015-Jun-30 13:34S 27°04' E 153°38'1414.4
2015-Jun-30 12:34S 27°18' E 153°40'1515.1
2015-Jun-30 11:34S 27°33' E 153°43'1514.8
2015-Jun-30 10:33S 27°47' E 153°46'28415.5
2015-Jun-29 16:12S 32°28' E 152°56'1015.2
2015-Jun-29 15:33S 32°37' E 152°51'1916.3
2015-Jun-29 14:24S 32°52' E 152°38'1315.2
2015-Jun-29 13:33S 33°03' E 152°30'1815.1
2015-Jun-29 12:20S 33°18' E 152°17'  

Dump ship's entire track history